Time;durP1;ratioP1;P1;durP2;ratioP2;P2;SDS_P1;SDS_P2;PMS_P1;PMS_P2;Temp;Humidity;BMP_temperature;BMP_pressure;BME280_temperature;BME280_humidity;BME280_pressure;Samples;Min_cycle;Max_cycle;Signal;HPM_P1;HPM_P2
2023/09/08 00:01:58;;;;;;;7.43;4.30;;;;;18.60;94498.00;;;;7395772;19;20683;-74
2023/09/08 00:04:33;;;;;;;5.78;5.00;;;;;18.60;94497.00;;;;7396383;19;20599;-78
2023/09/08 00:07:07;;;;;;;6.60;5.25;;;;;18.60;94498.00;;;;7393409;19;20635;-78
2023/09/08 00:09:48;;;;;;;9.00;4.93;;;;;18.70;94491.00;;;;7394242;19;20144;-75
2023/09/08 00:12:23;;;;;;;6.95;5.15;;;;;18.70;94481.00;;;;7395984;19;20576;-75
2023/09/08 00:14:51;;;;;;;7.75;4.88;;;;;18.70;94488.00;;;;7394225;19;20688;-77
2023/09/08 00:17:25;;;;;;;6.43;4.75;;;;;18.80;94466.00;;;;7395548;19;20215;-73
2023/09/08 00:19:53;;;;;;;10.05;5.30;;;;;18.70;94483.00;;;;7396291;19;20144;-74
2023/09/08 00:22:27;;;;;;;6.32;4.50;;;;;18.60;94488.00;;;;7393977;19;20158;-75
2023/09/08 00:24:56;;;;;;;7.95;4.68;;;;;18.50;94491.00;;;;7394731;19;20169;-74
2023/09/08 00:27:32;;;;;;;5.35;4.85;;;;;18.50;94484.00;;;;7395742;19;20635;-73
2023/09/08 00:30:01;;;;;;;5.47;4.65;;;;;18.40;94495.00;;;;7395423;19;20182;-74
2023/09/08 00:32:36;;;;;;;9.10;4.65;;;;;18.50;94480.00;;;;7394701;19;20623;-75
2023/09/08 00:35:07;;;;;;;5.28;4.70;;;;;18.50;94483.00;;;;7394857;19;20592;-74
2023/09/08 00:37:41;;;;;;;10.95;5.03;;;;;18.50;94486.00;;;;7395426;19;20584;-73
2023/09/08 00:40:10;;;;;;;5.60;4.95;;;;;18.50;94483.00;;;;7394145;19;20496;-74
2023/09/08 00:42:44;;;;;;;9.82;4.95;;;;;18.40;94484.00;;;;7394854;19;20207;-73
2023/09/08 00:45:18;;;;;;;7.53;4.68;;;;;18.40;94486.00;;;;7394325;19;20141;-73
2023/09/08 00:47:54;;;;;;;7.05;4.80;;;;;18.20;94484.00;;;;7393752;19;20595;-75
2023/09/08 00:50:22;;;;;;;5.65;4.88;;;;;18.00;94482.00;;;;7395244;19;20156;-73
2023/09/08 00:52:51;;;;;;;5.70;4.93;;;;;18.00;94477.00;;;;7393220;19;20140;-73
2023/09/08 00:55:25;;;;;;;5.78;5.03;;;;;18.10;94472.00;;;;7393785;19;20169;-78
2023/09/08 00:57:53;;;;;;;7.70;5.10;;;;;18.30;94480.00;;;;7396074;19;20153;-73
2023/09/08 01:00:27;;;;;;;6.93;5.15;;;;;18.30;94481.00;;;;7393358;19;20596;-72
2023/09/08 01:02:55;;;;;;;8.10;5.03;;;;;18.20;94478.00;;;;7394599;19;20133;-74
2023/09/08 01:05:30;;;;;;;9.10;4.85;;;;;18.30;94483.00;;;;7394449;19;20553;-73
2023/09/08 01:08:07;;;;;;;5.88;5.03;;;;;18.30;94471.00;;;;7392330;19;20164;-71
2023/09/08 01:10:42;;;;;;;8.48;5.60;;;;;18.30;94476.00;;;;7394911;19;20145;-74
2023/09/08 01:13:10;;;;;;;6.93;4.72;;;;;18.30;94473.00;;;;7393651;19;20466;-73
2023/09/08 01:15:45;;;;;;;9.75;4.82;;;;;18.20;94471.00;;;;7392993;19;20646;-73
2023/09/08 01:18:13;;;;;;;7.47;5.50;;;;;18.20;94470.00;;;;7395225;19;20164;-74
2023/09/08 01:21:06;;;;;;;12.40;5.28;;;;;18.40;94472.00;;;;7395342;19;20592;-74
2023/09/08 01:23:48;;;;;;;6.13;5.10;;;;;18.30;94478.00;;;;7391883;19;20259;-74
2023/09/08 01:26:25;;;;;;;7.50;5.15;;;;;18.20;94466.00;;;;7397795;19;20149;-72
2023/09/08 01:28:55;;;;;;;6.95;4.70;;;;;18.10;94465.00;;;;7401250;19;20161;-72
2023/09/08 01:31:29;;;;;;;8.80;5.13;;;;;18.10;94466.00;;;;7401467;19;20595;-73
2023/09/08 01:34:06;;;;;;;6.18;4.70;;;;;18.00;94462.00;;;;7400526;19;20141;-72
2023/09/08 01:36:40;;;;;;;6.20;4.85;;;;;17.90;94469.00;;;;7400808;19;20141;-74
2023/09/08 01:39:14;;;;;;;6.90;5.43;;;;;17.90;94466.00;;;;7403469;19;20136;-73
2023/09/08 01:41:42;;;;;;;8.43;5.75;;;;;17.90;94462.00;;;;7399210;19;20153;-72
2023/09/08 01:44:17;;;;;;;7.88;5.43;;;;;18.00;94460.00;;;;7398183;19;20152;-73
2023/09/08 01:46:44;;;;;;;6.65;5.10;;;;;18.10;94460.00;;;;7400638;19;20164;-72
2023/09/08 01:49:19;;;;;;;5.97;5.38;;;;;18.10;94463.00;;;;7399919;19;20140;-73
2023/09/08 01:51:53;;;;;;;6.07;5.43;;;;;18.00;94463.00;;;;7401654;19;20137;-74
2023/09/08 01:54:27;;;;;;;6.10;5.20;;;;;18.00;94465.00;;;;7400139;19;20144;-73
2023/09/08 01:56:55;;;;;;;7.53;5.57;;;;;18.10;94460.00;;;;7398160;19;20156;-73
2023/09/08 01:59:29;;;;;;;8.63;5.40;;;;;18.10;94453.00;;;;7399322;19;20158;-73
2023/09/08 02:01:56;;;;;;;6.85;5.22;;;;;18.10;94452.00;;;;7397629;19;20176;-72
2023/09/08 02:04:31;;;;;;;5.82;5.22;;;;;18.10;94447.00;;;;7396668;19;20159;-74
2023/09/08 02:07:13;;;;;;;6.00;5.40;;;;;18.00;94449.00;;;;7398585;19;20197;-73
2023/09/08 02:09:56;;;;;;;9.02;5.00;;;;;18.10;94449.00;;;;7399800;19;20153;-72
2023/09/08 02:12:31;;;;;;;6.35;5.22;;;;;18.10;94452.00;;;;7399868;19;20551;-73
2023/09/08 02:14:59;;;;;;;7.47;5.38;;;;;18.00;94458.00;;;;7398106;19;20494;-72
2023/09/08 02:17:34;;;;;;;7.10;5.13;;;;;17.80;94449.00;;;;7399132;19;20618;-72
2023/09/08 02:20:03;;;;;;;7.45;5.30;;;;;17.70;94452.00;;;;7398362;19;20185;-72
2023/09/08 02:22:38;;;;;;;7.40;5.35;;;;;17.40;94453.00;;;;7398056;19;20149;-72
2023/09/08 02:25:13;;;;;;;5.28;4.78;;;;;17.20;94456.00;;;;7399179;19;20511;-74
2023/09/08 02:27:48;;;;;;;7.05;5.45;;;;;16.90;94447.00;;;;7398837;19;20667;-73
2023/09/08 02:30:22;;;;;;;8.90;4.88;;;;;16.70;94457.00;;;;7397815;19;20203;-72
2023/09/08 02:32:57;;;;;;;6.70;4.85;;;;;16.60;94447.00;;;;7398326;19;20638;-73
2023/09/08 02:35:39;;;;;;;6.00;5.40;;;;;16.50;94451.00;;;;7398373;19;20136;-73
2023/09/08 02:38:07;;;;;;;9.13;5.43;;;;;16.40;94443.00;;;;7395152;19;20196;-72
2023/09/08 02:40:42;;;;;;;6.75;5.20;;;;;16.40;94445.00;;;;7397707;19;20140;-74
2023/09/08 02:43:10;;;;;;;6.88;5.72;;;;;16.40;94449.00;;;;7397751;19;20152;-72
2023/09/08 02:45:47;;;;;;;6.40;5.80;;;;;16.30;94447.00;;;;7397098;19;20212;-74
2023/09/08 02:48:22;;;;;;;7.45;5.63;;;;;16.30;94450.00;;;;7397986;19;20635;-75
2023/09/08 02:50:50;;;;;;;6.40;5.78;;;;;16.30;94450.00;;;;7398077;19;20180;-72
2023/09/08 02:53:24;;;;;;;7.03;5.85;;;;;16.60;94447.00;;;;7396951;19;20160;-73
2023/09/08 02:55:52;;;;;;;8.10;6.32;;;;;16.60;94448.00;;;;7397221;19;20160;-74
2023/09/08 02:58:27;;;;;;;8.85;6.40;;;;;16.80;94448.00;;;;7397703;19;20139;-74
2023/09/08 03:00:55;;;;;;;10.27;6.72;;;;;16.90;94452.00;;;;7396454;19;20173;-73
2023/09/08 03:03:29;;;;;;;11.68;6.00;;;;;16.90;94444.00;;;;7396435;19;20199;-76
2023/09/08 03:06:03;;;;;;;8.10;6.65;;;;;16.90;94447.00;;;;7397145;19;20140;-73
2023/09/08 03:08:37;;;;;;;10.05;6.10;;;;;16.70;94439.00;;;;7394516;19;20166;-72
2023/09/08 03:11:12;;;;;;;6.57;5.68;;;;;16.50;94444.00;;;;7397037;19;20548;-73
2023/09/08 03:13:40;;;;;;;6.78;6.07;;;;;16.40;94443.00;;;;7397589;19;20590;-72
2023/09/08 03:16:15;;;;;;;10.70;5.93;;;;;16.50;94441.00;;;;7396673;19;20770;-72
2023/09/08 03:18:44;;;;;;;8.70;6.68;;;;;16.40;94445.00;;;;7397383;19;20174;-74
2023/09/08 03:21:20;;;;;;;10.98;6.43;;;;;16.30;94443.00;;;;7396893;19;20195;-74
2023/09/08 03:23:54;;;;;;;6.85;6.15;;;;;16.30;94446.00;;;;7396837;19;20475;-72
2023/09/08 03:26:22;;;;;;;9.65;6.40;;;;;16.40;94445.00;;;;7397095;19;20151;-73
2023/09/08 03:28:57;;;;;;;8.48;6.32;;;;;16.20;94449.00;;;;7397172;19;20173;-73
2023/09/08 03:31:32;;;;;;;7.05;6.28;;;;;16.20;94445.00;;;;7395138;19;20543;-72
2023/09/08 03:34:07;;;;;;;6.57;5.90;;;;;16.00;94451.00;;;;7395741;19;20172;-75
2023/09/08 03:36:36;;;;;;;7.47;6.55;;;;;15.90;94443.00;;;;7396901;19;20145;-74
2023/09/08 03:39:09;;;;;;;8.18;6.70;;;;;15.90;94435.00;;;;7395924;19;20160;-72
2023/09/08 03:41:38;;;;;;;7.10;6.28;;;;;15.90;94444.00;;;;7396114;19;20159;-73
2023/09/08 03:44:06;;;;;;;7.28;6.55;;;;;15.80;94444.00;;;;7395395;19;20156;-72
2023/09/08 03:46:41;;;;;;;9.30;6.72;;;;;15.80;94439.00;;;;7396020;19;20630;-73
2023/09/08 03:49:16;;;;;;;7.63;6.82;;;;;15.80;94447.00;;;;7395095;19;20611;-74
2023/09/08 03:51:49;;;;;;;10.35;6.32;;;;;15.90;94449.00;;;;7395688;19;20208;-73
2023/09/08 03:54:24;;;;;;;7.95;7.00;;;;;16.10;94450.00;;;;7394022;19;20144;-72
2023/09/08 03:56:58;;;;;;;8.63;6.50;;;;;16.10;94448.00;;;;7395277;19;20140;-72
2023/09/08 03:59:34;;;;;;;8.00;7.00;;;;;16.20;94446.00;;;;7395790;19;20595;-72
2023/09/08 04:02:01;;;;;;;8.27;6.88;;;;;16.30;94436.00;;;;7393505;19;20264;-72
2023/09/08 04:04:36;;;;;;;9.02;6.55;;;;;16.30;94434.00;;;;7393878;19;20156;-74
2023/09/08 04:07:17;;;;;;;8.13;7.00;;;;;16.40;94429.00;;;;7395100;19;20160;-72
2023/09/08 04:09:59;;;;;;;13.70;6.75;;;;;16.30;94432.00;;;;7395887;19;20148;-73
2023/09/08 04:12:36;;;;;;;7.63;6.82;;;;;16.30;94428.00;;;;7395876;19;20144;-74
2023/09/08 04:15:11;;;;;;;8.57;6.85;;;;;16.20;94437.00;;;;7395169;19;20220;-74
2023/09/08 04:17:39;;;;;;;7.50;6.22;;;;;16.10;94436.00;;;;7395526;19;20145;-74
2023/09/08 04:20:14;;;;;;;8.82;7.10;;;;;16.00;94438.00;;;;7393920;19;20147;-74
2023/09/08 04:22:42;;;;;;;7.82;7.05;;;;;16.00;94441.00;;;;7395193;19;20509;-75
2023/09/08 04:25:19;;;;;;;8.52;7.28;;;;;16.20;94433.00;;;;7395701;19;20489;-78
2023/09/08 04:27:46;;;;;;;12.60;7.25;;;;;16.20;94436.00;;;;7394131;19;20523;-72
2023/09/08 04:30:21;;;;;;;9.82;7.32;;;;;16.50;94435.00;;;;7396514;19;20132;-74
2023/09/08 04:32:56;;;;;;;9.05;7.28;;;;;16.90;94432.00;;;;7395305;19;20467;-72
2023/09/08 04:35:30;;;;;;;11.05;7.85;;;;;17.00;94441.00;;;;7393000;19;20175;-72
2023/09/08 04:37:58;;;;;;;8.70;7.80;;;;;17.30;94441.00;;;;7394500;19;20143;-72
2023/09/08 04:40:32;;;;;;;8.55;7.38;;;;;17.50;94439.00;;;;7393992;19;20147;-72
2023/09/08 04:43:08;;;;;;;8.15;7.13;;;;;17.40;94442.00;;;;7395435;19;20147;-72
2023/09/08 04:45:43;;;;;;;9.80;7.45;;;;;17.50;94443.00;;;;7394692;19;20481;-73
2023/09/08 04:48:18;;;;;;;8.18;7.20;;;;;17.60;94444.00;;;;7395688;19;20129;-71
2023/09/08 04:50:52;;;;;;;10.93;7.78;;;;;17.50;94437.00;;;;7393389;19;20181;-72
2023/09/08 04:53:19;;;;;;;7.90;6.63;;;;;17.50;94445.00;;;;7394909;19;20662;-72
2023/09/08 04:55:54;;;;;;;7.70;6.45;;;;;17.40;94444.00;;;;7393729;19;20802;-72
2023/09/08 04:58:23;;;;;;;9.80;6.65;;;;;17.20;94442.00;;;;7393705;19;20622;-73
2023/09/08 05:00:58;;;;;;;7.80;6.63;;;;;17.20;94446.00;;;;7399382;19;20462;-71
2023/09/08 05:03:26;;;;;;;7.90;7.10;;;;;17.00;94442.00;;;;7400720;19;20145;-72
2023/09/08 05:06:01;;;;;;;7.93;7.13;;;;;17.00;94453.00;;;;7398151;19;20591;-73
2023/09/08 05:08:50;;;;;;;11.82;7.07;;;;;17.00;94463.00;;;;7401072;19;20227;-73
2023/09/08 05:11:25;;;;;;;8.10;7.15;;;;;17.00;94458.00;;;;7402020;19;20141;-72
2023/09/08 05:14:00;;;;;;;9.23;7.40;;;;;17.00;94457.00;;;;7400289;19;20171;-73
2023/09/08 05:16:37;;;;;;;8.15;7.22;;;;;16.90;94456.00;;;;7401591;19;20152;-73
2023/09/08 05:19:14;;;;;;;8.60;7.35;;;;;16.90;94457.00;;;;7400921;19;20231;-74
2023/09/08 05:21:51;;;;;;;8.10;7.38;;;;;17.00;94465.00;;;;7401948;19;20253;-73
2023/09/08 05:24:26;;;;;;;8.30;7.32;;;;;17.10;94453.00;;;;7399432;19;20140;-72
2023/09/08 05:26:56;;;;;;;8.73;7.38;;;;;17.20;94461.00;;;;7401390;19;20148;-74
2023/09/08 05:29:31;;;;;;;12.35;7.68;;;;;17.30;94463.00;;;;7402644;19;20139;-72
2023/09/08 05:32:06;;;;;;;11.63;8.10;;;;;17.50;94473.00;;;;7400484;19;20148;-73
2023/09/08 05:34:34;;;;;;;9.35;7.50;;;;;17.60;94468.00;;;;7402932;19;20614;-74
2023/09/08 05:37:10;;;;;;;9.95;7.60;;;;;17.60;94471.00;;;;7384018;19;20132;-73
2023/09/08 05:39:38;;;;;;;8.75;7.85;;;;;17.60;94477.00;;;;7383747;19;20143;-76
2023/09/08 05:42:14;;;;;;;8.18;7.38;;;;;17.70;94477.00;;;;7389311;19;20500;-72
2023/09/08 05:44:54;;;;;;;8.25;7.43;;;;;17.80;94473.00;;;;7388023;19;20129;-72
2023/09/08 05:47:29;;;;;;;8.40;7.53;;;;;17.90;94473.00;;;;7387847;19;20152;-77
2023/09/08 05:50:05;;;;;;;8.68;7.40;;;;;18.00;94472.00;;;;7387791;19;20148;-72
2023/09/08 05:52:40;;;;;;;8.38;7.55;;;;;18.20;94475.00;;;;7386121;19;20503;-72
2023/09/08 05:55:08;;;;;;;8.15;7.30;;;;;18.40;94477.00;;;;7387595;19;20488;-73
2023/09/08 05:57:42;;;;;;;8.27;6.43;;;;;18.50;94477.00;;;;7387351;19;20160;-72
2023/09/08 06:00:18;;;;;;;10.80;7.70;;;;;18.60;94471.00;;;;7388845;19;20755;-73
2023/09/08 06:02:53;;;;;;;7.53;6.82;;;;;18.80;94479.00;;;;7388861;19;20153;-76
2023/09/08 06:05:21;;;;;;;7.25;6.55;;;;;18.90;94470.00;;;;7388532;19;20124;-73
2023/09/08 06:08:02;;;;;;;8.68;6.65;;;;;19.20;94472.00;;;;7386976;19;20160;-75
2023/09/08 06:10:34;;;;;;;7.07;6.38;;;;;19.40;94474.00;;;;7386177;19;20615;-73
2023/09/08 06:13:10;;;;;;;8.38;7.28;;;;;19.60;94482.00;;;;7387765;19;20198;-74
2023/09/08 06:15:38;;;;;;;6.75;6.15;;;;;19.60;94470.00;;;;7388279;19;20132;-71
2023/09/08 06:18:14;;;;;;;7.22;6.55;;;;;19.70;94469.00;;;;7385331;19;20148;-72
2023/09/08 06:20:47;;;;;;;8.20;6.10;;;;;19.70;94474.00;;;;7386746;19;20145;-73
2023/09/08 06:23:21;;;;;;;7.93;6.18;;;;;19.80;94472.00;;;;7386829;19;20550;-72
2023/09/08 06:25:59;;;;;;;7.22;6.35;;;;;19.80;94471.00;;;;7385787;19;20158;-76
2023/09/08 06:28:35;;;;;;;7.30;6.60;;;;;19.90;94470.00;;;;7384153;19;20562;-74
2023/09/08 06:31:10;;;;;;;7.47;6.35;;;;;20.10;94479.00;;;;7388216;19;20129;-73
2023/09/08 06:33:45;;;;;;;7.70;6.60;;;;;20.30;94475.00;;;;7386889;19;20128;-72
2023/09/08 06:36:20;;;;;;;7.65;6.95;;;;;20.50;94470.00;;;;7385108;19;20160;-76
2023/09/08 06:38:55;;;;;;;7.95;6.93;;;;;20.70;94471.00;;;;7385627;19;20156;-74
2023/09/08 06:41:23;;;;;;;8.13;6.45;;;;;20.90;94464.00;;;;7385777;19;20155;-76
2023/09/08 06:43:58;;;;;;;9.05;7.18;;;;;21.00;94471.00;;;;7384547;19;20152;-72
2023/09/08 06:46:32;;;;;;;8.55;5.97;;;;;21.30;94468.00;;;;7385835;19;20148;-73
2023/09/08 06:49:14;;;;;;;6.93;6.32;;;;;21.50;94468.00;;;;7386457;19;20640;-75
2023/09/08 06:51:41;;;;;;;7.75;6.43;;;;;21.50;94463.00;;;;7385710;19;20156;-76
2023/09/08 06:54:16;;;;;;;9.95;6.28;;;;;21.80;94462.00;;;;7387256;19;20656;-75
2023/09/08 06:56:45;;;;;;;8.65;6.47;;;;;22.00;94466.00;;;;7385957;19;20606;-74
2023/09/08 06:59:19;;;;;;;6.78;6.07;;;;;22.00;94464.00;;;;7387117;19;20164;-73
2023/09/08 07:01:47;;;;;;;9.27;6.50;;;;;22.30;94473.00;;;;7384584;19;20627;-74
2023/09/08 07:04:22;;;;;;;7.40;5.82;;;;;22.50;94467.00;;;;7386416;19;20148;-74
2023/09/08 07:06:51;;;;;;;6.88;6.13;;;;;22.60;94467.00;;;;7384829;19;20187;-74
2023/09/08 07:09:33;;;;;;;6.40;5.63;;;;;22.70;94473.00;;;;7385724;19;20152;-75
2023/09/08 07:12:01;;;;;;;6.50;5.88;;;;;22.80;94470.00;;;;7384749;19;20162;-74
2023/09/08 07:14:41;;;;;;;6.22;5.65;;;;;23.00;94468.00;;;;7384560;19;20208;-72
2023/09/08 07:17:10;;;;;;;6.13;5.63;;;;;23.20;94466.00;;;;7385636;19;20152;-73
2023/09/08 07:19:44;;;;;;;7.95;6.03;;;;;23.40;94471.00;;;;7384446;19;20155;-73
2023/09/08 07:22:19;;;;;;;8.68;6.18;;;;;23.40;94468.00;;;;7384599;19;20508;-71
2023/09/08 07:24:48;;;;;;;8.77;6.40;;;;;23.50;94474.00;;;;7383523;19;20554;-73
2023/09/08 07:27:15;;;;;;;6.53;5.18;;;;;23.70;94467.00;;;;7384966;19;20145;-74
2023/09/08 07:29:50;;;;;;;8.98;6.38;;;;;23.70;94468.00;;;;7383618;19;20215;-75
2023/09/08 07:32:18;;;;;;;8.85;6.45;;;;;23.90;94465.00;;;;7383925;19;20608;-75
2023/09/08 07:34:54;;;;;;;10.25;5.97;;;;;24.10;94462.00;;;;7386065;19;20671;-74
2023/09/08 07:37:30;;;;;;;6.53;5.93;;;;;24.00;94462.00;;;;7385962;19;20160;-75
2023/09/08 07:40:04;;;;;;;9.25;5.22;;;;;24.10;94465.00;;;;7383201;19;20140;-74
2023/09/08 07:42:39;;;;;;;9.90;6.05;;;;;24.20;94471.00;;;;7386320;19;20136;-72
2023/09/08 07:45:14;;;;;;;7.40;5.93;;;;;24.40;94467.00;;;;7387227;19;20132;-73
2023/09/08 07:47:49;;;;;;;6.30;5.70;;;;;24.50;94472.00;;;;7383818;19;20607;-72
2023/09/08 07:50:26;;;;;;;5.60;5.10;;;;;24.40;94476.00;;;;7385202;19;20182;-74
2023/09/08 07:52:56;;;;;;;7.30;5.97;;;;;24.70;94479.00;;;;7384622;19;20133;-73
2023/09/08 07:55:31;;;;;;;6.35;5.72;;;;;24.80;94478.00;;;;7385163;19;20136;-75
2023/09/08 07:57:58;;;;;;;7.55;6.07;;;;;24.70;94480.00;;;;7383253;19;20167;-73
2023/09/08 08:00:33;;;;;;;8.20;5.20;;;;;25.00;94481.00;;;;7384061;19;20151;-75
2023/09/08 08:03:01;;;;;;;6.90;5.93;;;;;25.10;94481.00;;;;7384254;19;20473;-74
2023/09/08 08:05:36;;;;;;;8.95;5.40;;;;;25.30;94475.00;;;;7383820;19;20183;-73
2023/09/08 08:08:11;;;;;;;10.43;5.75;;;;;25.40;94481.00;;;;7383657;19;20179;-74
2023/09/08 08:10:53;;;;;;;7.30;6.13;;;;;25.40;94474.00;;;;7384690;19;20136;-74
2023/09/08 08:13:28;;;;;;;7.38;5.85;;;;;25.50;94472.00;;;;7384024;19;20155;-72
2023/09/08 08:16:11;;;;;;;6.10;5.55;;;;;25.60;94477.00;;;;7383831;19;20156;-76
2023/09/08 08:18:45;;;;;;;8.55;5.60;;;;;25.60;94472.00;;;;7383825;19;20136;-75
2023/09/08 08:21:13;;;;;;;7.03;5.57;;;;;25.80;94471.00;;;;7382040;19;20541;-75
2023/09/08 08:23:48;;;;;;;6.20;5.38;;;;;25.80;94472.00;;;;7381357;19;20175;-77
2023/09/08 08:26:16;;;;;;;10.02;5.65;;;;;25.60;94466.00;;;;7383985;19;20144;-75
2023/09/08 08:28:44;;;;;;;7.40;5.93;;;;;25.70;94475.00;;;;7383258;19;20656;-74
2023/09/08 08:31:18;;;;;;;6.28;5.68;;;;;25.90;94471.00;;;;7383979;19;20152;-74
2023/09/08 08:33:52;;;;;;;9.20;5.80;;;;;25.90;94474.00;;;;7383699;19;20149;-75
2023/09/08 08:36:20;;;;;;;6.75;5.78;;;;;25.90;94479.00;;;;7389454;19;20175;-73
2023/09/08 08:38:55;;;;;;;6.07;5.45;;;;;25.90;94484.00;;;;7389062;19;20150;-75
2023/09/08 08:41:30;;;;;;;7.30;5.53;;;;;26.00;94486.00;;;;7390693;19;20167;-73
2023/09/08 08:43:59;;;;;;;7.20;5.93;;;;;26.10;94483.00;;;;7389136;19;20148;-73
2023/09/08 08:46:36;;;;;;;6.85;5.88;;;;;26.30;94482.00;;;;7391527;19;20157;-72
2023/09/08 08:49:04;;;;;;;6.57;5.93;;;;;26.60;94484.00;;;;7389145;19;20232;-74
2023/09/08 08:51:39;;;;;;;11.00;6.05;;;;;26.50;94479.00;;;;7390354;19;20149;-74
2023/09/08 08:54:07;;;;;;;8.57;5.63;;;;;26.50;94491.00;;;;7390709;19;20141;-74
2023/09/08 08:56:43;;;;;;;6.93;6.18;;;;;26.40;94486.00;;;;7389268;19;20600;-74
2023/09/08 08:59:12;;;;;;;8.70;5.47;;;;;26.40;94483.00;;;;7389818;19;20588;-75
2023/09/08 09:01:46;;;;;;;7.10;5.72;;;;;26.50;94474.00;;;;7387163;19;20164;-74
2023/09/08 09:04:20;;;;;;;8.82;6.10;;;;;26.40;94477.00;;;;7388145;19;20152;-75
2023/09/08 09:06:55;;;;;;;10.10;5.85;;;;;26.70;94488.00;;;;7388747;19;20185;-75
2023/09/08 09:09:31;;;;;;;5.88;5.38;;;;;26.50;94479.00;;;;7388614;19;20631;-75
2023/09/08 09:12:06;;;;;;;6.15;5.55;;;;;26.30;94485.00;;;;7387566;19;20129;-75
2023/09/08 09:14:47;;;;;;;8.93;5.95;;;;;26.50;94476.00;;;;7387769;19;20144;-76
2023/09/08 09:17:22;;;;;;;6.78;6.13;;;;;26.40;94481.00;;;;7389234;19;20620;-73
2023/09/08 09:19:50;;;;;;;6.80;6.13;;;;;26.50;94483.00;;;;7387857;19;20634;-74
2023/09/08 09:22:21;;;;;;;9.75;6.20;;;;;26.70;94491.00;;;;7388505;19;20208;-75
2023/09/08 09:24:57;;;;;;;6.95;5.82;;;;;27.10;94485.00;;;;7388588;19;20200;-75
2023/09/08 09:27:44;;;;;;;6.50;5.90;;;;;27.00;94482.00;;;;7388180;19;20208;-76
2023/09/08 09:30:18;;;;;;;6.57;5.97;;;;;27.10;94483.00;;;;7389122;19;20223;-75
2023/09/08 09:33:04;;;;;;;6.82;5.72;;;;;27.30;94480.00;;;;7390923;19;20128;-73
2023/09/08 09:35:49;;;;;;;8.43;6.43;;;;;27.30;94476.00;;;;7402831;19;20148;-77
2023/09/08 09:38:27;;;;;;;8.10;5.90;;;;;27.20;94476.00;;;;7391206;19;20157;-80
2023/09/08 09:40:55;;;;;;;7.20;6.18;;;;;27.50;94477.00;;;;7388643;19;20216;-73
2023/09/08 09:43:30;;;;;;;6.30;5.70;;;;;27.60;94480.00;;;;7391978;19;20143;-75
2023/09/08 09:45:58;;;;;;;6.68;6.07;;;;;27.50;94478.00;;;;7392555;19;20129;-77
2023/09/08 09:48:33;;;;;;;6.68;5.60;;;;;27.50;94478.00;;;;7388680;19;20136;-75
2023/09/08 09:51:19;;;;;;;8.20;5.85;;;;;27.10;94477.00;;;;7388333;19;20157;-78
2023/09/08 09:53:55;;;;;;;6.85;6.25;;;;;27.30;94477.00;;;;7386630;19;20149;-76
2023/09/08 09:56:24;;;;;;;8.65;5.70;;;;;27.70;94477.00;;;;7388656;19;20151;-79
2023/09/08 09:59:02;;;;;;;9.35;7.47;;;;;27.80;94474.00;;;;7388224;19;20150;-75
2023/09/08 10:01:37;;;;;;;6.28;5.65;;;;;28.00;94477.00;;;;7388616;19;20152;-73
2023/09/08 10:04:15;;;;;;;8.85;6.05;;;;;27.90;94472.00;;;;7389243;19;20137;-76
2023/09/08 10:06:51;;;;;;;8.52;6.13;;;;;28.00;94477.00;;;;7391183;19;20152;-76
2023/09/08 10:09:25;;;;;;;7.97;5.75;;;;;28.30;94473.00;;;;7387532;19;20249;-75
2023/09/08 10:12:04;;;;;;;6.18;5.68;;;;;28.60;94481.00;;;;7386143;19;20163;-75
2023/09/08 10:14:35;;;;;;;8.18;5.63;;;;;28.50;94480.00;;;;7388225;19;20227;-75
2023/09/08 10:17:18;;;;;;;6.90;6.20;;;;;28.50;94476.00;;;;7390103;19;20170;-74
2023/09/08 10:19:51;;;;;;;7.40;5.38;;;;;28.70;94476.00;;;;7390091;19;20132;-75
2023/09/08 10:22:32;;;;;;;7.15;6.45;;;;;29.10;94463.00;;;;7387982;19;20588;-75
2023/09/08 10:25:10;;;;;;;7.03;5.82;;;;;29.30;94466.00;;;;7388572;19;20152;-74
2023/09/08 10:27:38;;;;;;;6.22;5.63;;;;;29.20;94474.00;;;;7386025;19;20182;-74
2023/09/08 10:30:14;;;;;;;8.15;5.93;;;;;29.20;94467.00;;;;7386252;19;20461;-75
2023/09/08 10:32:49;;;;;;;9.15;6.10;;;;;29.20;94472.00;;;;7387329;19;20204;-75
2023/09/08 10:35:26;;;;;;;5.97;5.45;;;;;29.40;94473.00;;;;7388147;19;20691;-73
2023/09/08 10:38:21;;;;;;;7.97;5.72;;;;;29.30;94462.00;;;;7383065;19;20156;-75
2023/09/08 10:41:15;;;;;;;8.80;6.07;;;;;29.10;94461.00;;;;7387726;19;20140;-75
2023/09/08 10:43:57;;;;;;;8.98;6.30;;;;;29.20;94463.00;;;;7386607;19;20168;-75
2023/09/08 10:46:34;;;;;;;6.57;5.97;;;;;28.90;94470.00;;;;7387939;19;20158;-74
2023/09/08 10:49:04;;;;;;;6.55;5.72;;;;;28.80;94467.00;;;;7386907;19;20220;-79
2023/09/08 10:51:39;;;;;;;6.97;6.18;;;;;29.20;94466.00;;;;7385929;19;20749;-77
2023/09/08 10:54:41;;;;;;;9.93;6.07;;;;;29.40;94464.00;;;;7386377;19;20195;-75
2023/09/08 10:57:17;;;;;;;10.73;6.70;;;;;29.60;94460.00;;;;7387949;19;20243;-73
2023/09/08 11:00:11;;;;;;;9.52;6.15;;;;;29.40;94463.00;;;;7384749;19;20203;-74
2023/09/08 11:02:56;;;;;;;8.18;6.20;;;;;29.50;94469.00;;;;7387928;19;20593;-73
2023/09/08 11:05:32;;;;;;;9.73;6.38;;;;;29.60;94466.00;;;;7386414;19;20141;-74
2023/09/08 11:08:07;;;;;;;7.88;6.50;;;;;29.70;94469.00;;;;7386635;19;20145;-74
2023/09/08 11:10:47;;;;;;;8.57;6.93;;;;;30.00;94478.00;;;;7387836;19;20228;-76
2023/09/08 11:13:22;;;;;;;8.52;6.60;;;;;30.30;94434.00;;;;7387471;19;20154;-75
2023/09/08 11:15:56;;;;;;;9.38;6.80;;;;;30.00;94471.00;;;;7386099;19;20148;-73
2023/09/08 11:18:28;;;;;;;7.75;6.05;;;;;30.00;94470.00;;;;7387898;19;20207;-78
2023/09/08 11:21:07;;;;;;;13.07;7.40;;;;;30.00;94462.00;;;;7387595;19;20146;-74
2023/09/08 11:23:36;;;;;;;8.68;6.72;;;;;30.60;94463.00;;;;7386876;19;20151;-75
2023/09/08 11:26:13;;;;;;;11.57;6.47;;;;;30.30;94458.00;;;;7389294;19;20144;-77
2023/09/08 11:28:42;;;;;;;11.15;6.40;;;;;30.50;94453.00;;;;7386258;19;20137;-75
2023/09/08 11:31:16;;;;;;;8.13;6.85;;;;;30.70;94464.00;;;;7386873;19;20158;-75
2023/09/08 11:33:48;;;;;;;9.77;6.75;;;;;30.30;94458.00;;;;7386164;19;20607;-79
2023/09/08 11:36:23;;;;;;;7.55;6.80;;;;;30.90;94451.00;;;;7386985;19;20156;-78
2023/09/08 11:38:58;;;;;;;8.93;6.25;;;;;30.80;94467.00;;;;7387722;19;20146;-79
2023/09/08 11:41:26;;;;;;;9.10;7.10;;;;;31.20;94466.00;;;;7385900;19;21361;-74
2023/09/08 11:44:01;;;;;;;7.80;6.63;;;;;31.30;94460.00;;;;7387053;19;20593;-74
2023/09/08 11:46:30;;;;;;;15.63;6.45;;;;;31.40;94457.00;;;;7386251;19;20144;-75
2023/09/08 11:49:06;;;;;;;12.50;6.60;;;;;31.00;94458.00;;;;7387037;19;21931;-77
2023/09/08 11:51:34;;;;;;;7.80;6.65;;;;;31.50;94463.00;;;;7388334;19;20148;-75
2023/09/08 11:54:09;;;;;;;8.68;6.10;;;;;31.60;94454.00;;;;7386057;19;20148;-73
2023/09/08 11:56:45;;;;;;;6.78;5.95;;;;;31.20;94464.00;;;;7385837;19;20969;-76
2023/09/08 11:59:20;;;;;;;7.82;5.88;;;;;30.80;94468.00;;;;7387771;19;20622;-73
2023/09/08 12:01:56;;;;;;;12.38;6.82;;;;;31.20;94462.00;;;;7388326;19;20158;-77
2023/09/08 12:04:26;;;;;;;7.43;6.43;;;;;31.10;94464.00;;;;7386079;19;20140;-78
2023/09/08 12:07:01;;;;;;;7.57;6.60;;;;;31.30;94471.00;;;;7385180;19;20162;-75
2023/09/08 12:09:38;;;;;;;7.53;6.75;;;;;31.60;94466.00;;;;7385600;19;20198;-75
2023/09/08 12:12:13;;;;;;;8.10;6.25;;;;;31.00;94469.00;;;;7386182;19;20473;-76
2023/09/08 12:14:44;;;;;;;7.38;6.00;;;;;31.50;94469.00;;;;7387408;19;20151;-74
2023/09/08 12:17:24;;;;;;;10.15;6.35;;;;;31.50;94470.00;;;;7386907;19;20152;-75
2023/09/08 12:19:52;;;;;;;8.15;6.22;;;;;31.50;94461.00;;;;7384392;19;20151;-74
2023/09/08 12:22:26;;;;;;;6.57;5.85;;;;;31.40;94456.00;;;;7385582;19;20136;-76
2023/09/08 12:24:53;;;;;;;7.00;6.30;;;;;31.80;94468.00;;;;7386287;19;20148;-73
2023/09/08 12:27:21;;;;;;;7.57;6.32;;;;;31.80;94454.00;;;;7385316;19;20136;-74
2023/09/08 12:30:00;;;;;;;6.75;6.13;;;;;31.60;94457.00;;;;7386249;19;20152;-77
2023/09/08 12:32:32;;;;;;;7.63;6.28;;;;;32.20;94456.00;;;;7386458;19;20124;-75
2023/09/08 12:35:07;;;;;;;8.13;6.15;;;;;31.80;94455.00;;;;7387996;19;20483;-73
2023/09/08 12:37:42;;;;;;;7.25;6.13;;;;;31.70;94452.00;;;;7385888;19;20147;-76
2023/09/08 12:40:17;;;;;;;6.97;5.93;;;;;31.90;94445.00;;;;7386916;19;20151;-78
2023/09/08 12:42:52;;;;;;;6.97;6.28;;;;;31.70;94451.00;;;;7387565;19;20136;-73
2023/09/08 12:45:46;;;;;;;7.22;6.53;;;;;31.40;94450.00;;;;7387033;19;20139;-74
2023/09/08 12:48:14;;;;;;;6.45;5.85;;;;;31.60;94452.00;;;;7384679;19;20144;-77
2023/09/08 12:50:48;;;;;;;6.45;5.60;;;;;31.90;94447.00;;;;7389367;19;20148;-78